createdAt,value
2017-11-28T00:00:21.582Z,0
2017-11-28T00:01:23.456Z,0
2017-11-28T00:02:25.329Z,0
2017-11-28T00:03:27.155Z,0
2017-11-28T00:04:28.971Z,0
2017-11-28T00:05:30.849Z,0
2017-11-28T00:06:32.727Z,0
2017-11-28T00:07:34.600Z,0
2017-11-28T00:08:48.749Z,0
2017-11-28T00:09:50.624Z,0
2017-11-28T00:10:52.501Z,0
2017-11-28T00:11:54.376Z,0
2017-11-28T00:12:56.203Z,0
2017-11-28T00:13:58.013Z,0
2017-11-28T00:14:59.891Z,0
2017-11-28T00:16:01.764Z,0
2017-11-28T00:17:03.641Z,0
2017-11-28T00:18:17.788Z,0
2017-11-28T00:19:19.665Z,0
2017-11-28T00:20:21.544Z,0
2017-11-28T00:21:23.421Z,0
2017-11-28T00:22:25.235Z,0
2017-11-28T00:23:27.048Z,0
2017-11-28T00:24:28.928Z,0
2017-11-28T00:25:30.807Z,0
2017-11-28T00:26:32.684Z,0
2017-11-28T00:27:46.881Z,0
2017-11-28T00:28:48.761Z,0
2017-11-28T00:29:50.642Z,0
2017-11-28T00:30:52.520Z,0
2017-11-28T00:31:54.333Z,0
2017-11-28T00:32:56.161Z,0
2017-11-28T00:33:58.049Z,0
2017-11-28T00:34:59.928Z,0
2017-11-28T00:36:01.804Z,0
2017-11-28T00:37:16.010Z,0
2017-11-28T00:38:17.883Z,0
2017-11-28T00:39:19.760Z,0
2017-11-28T00:40:21.636Z,0
2017-11-28T00:41:23.452Z,0
2017-11-28T00:42:25.271Z,0
2017-11-28T00:43:27.146Z,0
2017-11-28T00:44:29.020Z,0
2017-11-28T00:45:30.908Z,0
2017-11-28T00:46:45.058Z,0
2017-11-28T00:47:46.936Z,0
2017-11-28T00:48:48.814Z,0
2017-11-28T00:49:50.692Z,0
2017-11-28T00:50:52.507Z,0
2017-11-28T00:51:54.325Z,0
2017-11-28T00:52:56.210Z,0
2017-11-28T00:53:58.076Z,0
2017-11-28T00:54:59.952Z,0
2017-11-28T00:56:14.105Z,0
2017-11-28T00:57:15.982Z,0
2017-11-28T00:58:17.863Z,0
2017-11-28T00:59:19.726Z,0
2017-11-28T01:00:21.540Z,0
2017-11-28T01:01:23.358Z,0
2017-11-28T01:02:25.233Z,0
2017-11-28T01:03:27.108Z,0
2017-11-28T01:04:28.982Z,0
2017-11-28T01:05:43.133Z,0
2017-11-28T01:06:45.006Z,0
2017-11-28T01:07:46.892Z,0
2017-11-28T01:08:48.762Z,0
2017-11-28T01:09:50.577Z,0
2017-11-28T01:10:52.389Z,0
2017-11-28T01:11:54.262Z,0
2017-11-28T01:12:56.138Z,0
2017-11-28T01:13:58.010Z,0
2017-11-28T01:15:12.159Z,0
2017-11-28T01:16:14.033Z,0
2017-11-28T01:17:15.906Z,0
2017-11-28T01:18:17.779Z,0
2017-11-28T01:19:19.595Z,0
2017-11-28T01:20:21.412Z,0
2017-11-28T01:21:23.285Z,0
2017-11-28T01:22:25.160Z,0
2017-11-28T01:23:27.032Z,0
2017-11-28T01:24:41.180Z,0
2017-11-28T01:25:43.055Z,0
2017-11-28T01:26:44.930Z,0
2017-11-28T01:27:46.801Z,0
2017-11-28T01:28:48.615Z,0
2017-11-28T01:29:50.431Z,0
2017-11-28T01:30:52.306Z,0
2017-11-28T01:31:54.185Z,0
2017-11-28T01:32:56.054Z,0
2017-11-28T01:34:10.204Z,0
2017-11-28T01:35:12.077Z,0
2017-11-28T01:36:13.953Z,0
2017-11-28T01:37:15.823Z,0
2017-11-28T01:38:17.638Z,0
2017-11-28T01:39:19.454Z,0
2017-11-28T01:40:21.328Z,0
2017-11-28T01:41:23.202Z,0
2017-11-28T01:42:25.079Z,0
2017-11-28T01:43:39.226Z,0
2017-11-28T01:44:41.102Z,0
2017-11-28T01:45:42.981Z,0
2017-11-28T01:46:44.849Z,0
2017-11-28T01:47:46.665Z,0
2017-11-28T01:48:48.478Z,0
2017-11-28T01:49:50.352Z,0
2017-11-28T01:50:52.234Z,0
2017-11-28T01:51:54.101Z,0
2017-11-28T01:53:08.258Z,0
2017-11-28T01:54:10.134Z,0
2017-11-28T01:55:12.010Z,0
2017-11-28T01:56:13.878Z,0
2017-11-28T01:57:15.694Z,0
2017-11-28T01:58:17.510Z,0
2017-11-28T01:59:19.385Z,0
2017-11-28T02:00:21.263Z,0
2017-11-28T02:01:23.136Z,0
2017-11-28T02:02:37.288Z,0
2017-11-28T02:03:39.164Z,0
2017-11-28T02:04:41.055Z,0
2017-11-28T02:05:42.921Z,0
2017-11-28T02:06:44.737Z,0
2017-11-28T02:07:46.566Z,0
2017-11-28T02:08:48.441Z,0
2017-11-28T02:09:50.317Z,0
2017-11-28T02:10:52.192Z,0
2017-11-28T02:12:06.341Z,0
2017-11-28T02:13:08.213Z,0
2017-11-28T02:14:10.088Z,0
2017-11-28T02:15:11.958Z,0
2017-11-28T02:16:13.789Z,0
2017-11-28T02:17:15.589Z,0
2017-11-28T02:18:17.461Z,0
2017-11-28T02:19:19.338Z,0
2017-11-28T02:20:21.210Z,0
2017-11-28T02:21:35.357Z,0
2017-11-28T02:22:37.232Z,0
2017-11-28T02:23:39.111Z,0
2017-11-28T02:24:40.983Z,0
2017-11-28T02:25:42.798Z,0
2017-11-28T02:26:44.612Z,0
2017-11-28T02:27:46.485Z,0
2017-11-28T02:28:48.366Z,0
2017-11-28T02:29:50.242Z,0
2017-11-28T02:31:04.392Z,0
2017-11-28T02:32:06.268Z,0
2017-11-28T02:33:08.148Z,0
2017-11-28T02:34:10.025Z,0
2017-11-28T02:35:11.840Z,0
2017-11-28T02:36:13.656Z,0
2017-11-28T02:37:15.528Z,0
2017-11-28T02:38:17.405Z,0
2017-11-28T02:39:19.277Z,0
2017-11-28T02:40:33.428Z,0
2017-11-28T02:41:35.307Z,0
2017-11-28T02:42:37.187Z,0
2017-11-28T02:43:39.064Z,0
2017-11-28T02:44:40.880Z,0
2017-11-28T02:45:42.692Z,0
2017-11-28T02:46:44.529Z,0
2017-11-28T02:47:46.344Z,0
2017-11-28T02:48:48.181Z,0
2017-11-28T02:50:02.334Z,0
2017-11-28T02:51:04.213Z,0
2017-11-28T02:52:06.094Z,0
2017-11-28T02:53:07.967Z,0
2017-11-28T02:54:09.783Z,0
2017-11-28T02:55:11.598Z,0
2017-11-28T02:56:13.475Z,0
2017-11-28T02:57:15.352Z,0
2017-11-28T02:58:17.224Z,0
2017-11-28T02:59:31.382Z,0
2017-11-28T03:00:33.248Z,0
2017-11-28T03:01:35.123Z,0
2017-11-28T03:02:36.993Z,0
2017-11-28T03:03:38.809Z,0
2017-11-28T03:04:40.624Z,0
2017-11-28T03:05:42.495Z,0
2017-11-28T03:06:44.394Z,0
2017-11-28T03:07:46.249Z,0
2017-11-28T03:09:00.395Z,0
2017-11-28T03:10:02.270Z,0
2017-11-28T03:11:04.149Z,0
2017-11-28T03:12:06.024Z,0
2017-11-28T03:13:07.840Z,0
2017-11-28T03:14:09.653Z,0
2017-11-28T03:15:11.528Z,0
2017-11-28T03:16:13.402Z,0
2017-11-28T03:17:15.273Z,0
2017-11-28T03:18:29.419Z,0
2017-11-28T03:19:31.294Z,0
2017-11-28T03:20:33.171Z,0
2017-11-28T03:21:35.040Z,0
2017-11-28T03:22:36.855Z,0
2017-11-28T03:23:38.671Z,0
2017-11-28T03:24:40.541Z,0
2017-11-28T03:25:42.421Z,0
2017-11-28T03:26:44.292Z,0
2017-11-28T03:27:58.491Z,0
2017-11-28T03:29:00.365Z,0
2017-11-28T03:30:02.243Z,0
2017-11-28T03:31:04.116Z,0
2017-11-28T03:32:05.930Z,0
2017-11-28T03:33:07.748Z,0
2017-11-28T03:34:09.632Z,0
2017-11-28T03:35:11.492Z,0
2017-11-28T03:36:13.364Z,0
2017-11-28T03:37:27.511Z,0
2017-11-28T03:38:29.413Z,0
2017-11-28T03:39:31.290Z,0
2017-11-28T03:40:33.167Z,0
2017-11-28T03:41:34.981Z,0
2017-11-28T03:42:36.806Z,0
2017-11-28T03:43:38.670Z,0
2017-11-28T03:44:40.546Z,0
2017-11-28T03:45:42.422Z,0
2017-11-28T03:46:56.616Z,0
2017-11-28T03:47:58.491Z,0
2017-11-28T03:49:00.366Z,0
2017-11-28T03:50:02.239Z,0
2017-11-28T03:51:04.053Z,0
2017-11-28T03:52:05.867Z,0
2017-11-28T03:53:07.741Z,0
2017-11-28T03:54:09.618Z,0
2017-11-28T03:55:11.489Z,0
2017-11-28T03:56:25.665Z,0
2017-11-28T03:57:27.479Z,0
2017-11-28T03:58:29.315Z,0
2017-11-28T03:59:31.188Z,0
2017-11-28T04:00:33.065Z,0
2017-11-28T04:01:34.918Z,0
2017-11-28T04:02:36.729Z,0
2017-11-28T04:03:38.544Z,0
2017-11-28T04:04:40.418Z,0
2017-11-28T04:05:54.628Z,0
2017-11-28T04:06:56.500Z,0
2017-11-28T04:07:58.378Z,0
2017-11-28T04:09:00.251Z,0
2017-11-28T04:10:02.067Z,0
2017-11-28T04:11:03.880Z,0
2017-11-28T04:12:05.753Z,0
2017-11-28T04:13:07.631Z,0
2017-11-28T04:14:09.503Z,0
2017-11-28T04:15:23.701Z,0
2017-11-28T04:16:25.573Z,0
2017-11-28T04:17:27.467Z,0
2017-11-28T04:18:29.320Z,0
2017-11-28T04:19:31.136Z,0
2017-11-28T04:20:32.951Z,0
2017-11-28T04:21:34.826Z,0
2017-11-28T04:22:36.698Z,0
2017-11-28T04:23:38.569Z,0
2017-11-28T04:24:52.722Z,0
2017-11-28T04:25:54.592Z,0
2017-11-28T04:26:56.467Z,0
2017-11-28T04:27:58.343Z,0
2017-11-28T04:29:00.158Z,0
2017-11-28T04:30:01.976Z,0
2017-11-28T04:31:03.843Z,0
2017-11-28T04:32:05.722Z,0
2017-11-28T04:33:07.593Z,0
2017-11-28T04:34:21.797Z,0
2017-11-28T04:35:23.664Z,0
2017-11-28T04:36:25.547Z,0
2017-11-28T04:37:27.413Z,0
2017-11-28T04:38:29.227Z,0
2017-11-28T04:39:31.041Z,0
2017-11-28T04:40:32.913Z,0
2017-11-28T04:41:34.790Z,0
2017-11-28T04:42:36.662Z,0
2017-11-28T04:43:50.808Z,0
2017-11-28T04:44:52.680Z,0
2017-11-28T04:45:54.557Z,0
2017-11-28T04:46:56.429Z,0
2017-11-28T04:47:58.248Z,0
2017-11-28T04:49:00.062Z,0
2017-11-28T04:50:01.934Z,0
2017-11-28T04:51:03.808Z,0
2017-11-28T04:52:05.692Z,0
2017-11-28T04:53:19.829Z,0
2017-11-28T04:54:21.703Z,0
2017-11-28T04:55:23.579Z,0
2017-11-28T04:56:25.452Z,0
2017-11-28T04:57:27.269Z,0
2017-11-28T04:58:29.087Z,0
2017-11-28T04:59:30.961Z,0
2017-11-28T05:00:32.836Z,0
2017-11-28T05:01:34.712Z,0
2017-11-28T05:02:48.862Z,0
2017-11-28T05:03:50.736Z,0
2017-11-28T05:04:52.619Z,0
2017-11-28T05:05:54.487Z,0
2017-11-28T05:06:56.303Z,0
2017-11-28T05:07:58.117Z,0
2017-11-28T05:08:59.990Z,0
2017-11-28T05:10:01.871Z,0
2017-11-28T05:11:03.743Z,0
2017-11-28T05:12:17.888Z,0
2017-11-28T05:13:19.760Z,0
2017-11-28T05:14:21.635Z,0
2017-11-28T05:15:23.506Z,0
2017-11-28T05:16:25.319Z,0
2017-11-28T05:17:27.135Z,0
2017-11-28T05:18:29.003Z,0
2017-11-28T05:19:30.874Z,0
2017-11-28T05:20:32.751Z,0
2017-11-28T05:21:46.895Z,0
2017-11-28T05:22:48.768Z,0
2017-11-28T05:23:50.643Z,0
2017-11-28T05:24:52.512Z,0
2017-11-28T05:25:54.326Z,0
2017-11-28T05:26:56.138Z,0
2017-11-28T05:27:58.008Z,0
2017-11-28T05:28:59.881Z,0
2017-11-28T05:30:01.752Z,0
2017-11-28T05:31:15.947Z,0
2017-11-28T05:32:17.825Z,0
2017-11-28T05:33:19.692Z,0
2017-11-28T05:34:21.561Z,0
2017-11-28T05:35:23.376Z,0
2017-11-28T05:36:25.189Z,0
2017-11-28T05:37:27.060Z,0
2017-11-28T05:38:28.939Z,0
2017-11-28T05:39:30.804Z,0
2017-11-28T05:40:45.003Z,0
2017-11-28T05:41:46.874Z,0
2017-11-28T05:42:48.753Z,0
2017-11-28T05:43:50.619Z,0
2017-11-28T05:44:52.431Z,0
2017-11-28T05:45:54.246Z,0
2017-11-28T05:46:56.116Z,0
2017-11-28T05:47:57.997Z,0
2017-11-28T05:48:59.866Z,0
2017-11-28T05:50:14.058Z,0
2017-11-28T05:51:15.931Z,0
2017-11-28T05:52:17.819Z,0
2017-11-28T05:53:19.719Z,0
2017-11-28T05:54:21.532Z,0
2017-11-28T05:55:23.346Z,0
2017-11-28T05:56:25.215Z,0
2017-11-28T05:57:27.090Z,0
2017-11-28T05:58:28.967Z,0
2017-11-28T05:59:43.109Z,0
2017-11-28T06:00:44.979Z,0
2017-11-28T06:01:46.853Z,0
2017-11-28T06:02:48.724Z,0
2017-11-28T06:03:50.542Z,0
2017-11-28T06:04:52.355Z,0
2017-11-28T06:05:54.225Z,0
2017-11-28T06:06:56.097Z,0
2017-11-28T06:07:57.970Z,0
2017-11-28T06:09:12.115Z,0
2017-11-28T06:10:13.993Z,0
2017-11-28T06:11:15.869Z,4
2017-11-28T06:12:17.734Z,4
2017-11-28T06:13:19.547Z,4
2017-11-28T06:14:21.359Z,4
2017-11-28T06:15:23.235Z,4
2017-11-28T06:16:25.115Z,4
2017-11-28T06:17:26.982Z,8
2017-11-28T06:18:41.128Z,8
2017-11-28T06:19:42.999Z,8
2017-11-28T06:20:44.871Z,8
2017-11-28T06:21:46.743Z,12
2017-11-28T06:22:48.561Z,16
2017-11-28T06:23:50.376Z,12
2017-11-28T06:24:52.246Z,16
2017-11-28T06:25:54.119Z,20
2017-11-28T06:26:55.991Z,24
2017-11-28T06:28:10.144Z,24
2017-11-28T06:29:12.016Z,32
2017-11-28T06:30:13.892Z,32
2017-11-28T06:31:15.766Z,36
2017-11-28T06:32:17.585Z,44
2017-11-28T06:33:19.391Z,48
2017-11-28T06:34:21.264Z,52
2017-11-28T06:35:23.135Z,56
2017-11-28T06:36:25.006Z,64
2017-11-28T06:37:39.204Z,68
2017-11-28T06:38:41.077Z,72
2017-11-28T06:39:42.953Z,80
2017-11-28T06:40:44.825Z,84
2017-11-28T06:41:46.640Z,88
2017-11-28T06:42:48.452Z,96
2017-11-28T06:43:50.325Z,96
2017-11-28T06:44:52.198Z,104
2017-11-28T06:45:54.068Z,112
2017-11-28T06:47:08.217Z,124
2017-11-28T06:48:10.093Z,128
2017-11-28T06:49:11.971Z,136
2017-11-28T06:50:13.843Z,140
2017-11-28T06:51:15.659Z,152
2017-11-28T06:52:17.471Z,156
2017-11-28T06:53:19.344Z,164
2017-11-28T06:54:21.218Z,164
2017-11-28T06:55:23.088Z,168
2017-11-28T06:56:37.237Z,184
2017-11-28T06:57:39.109Z,192
2017-11-28T06:58:40.985Z,196
2017-11-28T06:59:42.858Z,208
2017-11-28T07:00:44.676Z,220
2017-11-28T07:01:46.490Z,224
2017-11-28T07:02:48.364Z,244
2017-11-28T07:03:50.240Z,256
2017-11-28T07:04:52.115Z,264
2017-11-28T07:06:06.262Z,284
2017-11-28T07:07:08.138Z,292
2017-11-28T07:08:10.046Z,300
2017-11-28T07:09:11.899Z,312
2017-11-28T07:10:13.709Z,324
2017-11-28T07:11:15.522Z,336
2017-11-28T07:12:17.359Z,352
2017-11-28T07:13:19.177Z,364
2017-11-28T07:14:20.990Z,368
2017-11-28T07:15:35.165Z,392
2017-11-28T07:16:37.039Z,404
2017-11-28T07:17:38.917Z,420
2017-11-28T07:18:40.833Z,428
2017-11-28T07:19:42.611Z,432
2017-11-28T07:20:44.426Z,444
2017-11-28T07:21:46.301Z,456
2017-11-28T07:22:48.175Z,460
2017-11-28T07:23:50.048Z,464
2017-11-28T07:25:04.198Z,480
2017-11-28T07:26:06.073Z,504
2017-11-28T07:27:07.952Z,516
2017-11-28T07:28:09.825Z,552
2017-11-28T07:29:11.641Z,572
2017-11-28T07:30:13.458Z,592
2017-11-28T07:31:15.333Z,596
2017-11-28T07:32:17.206Z,608
2017-11-28T07:33:19.077Z,604
2017-11-28T07:34:33.230Z,632
2017-11-28T07:35:35.110Z,664
2017-11-28T07:36:36.984Z,696
2017-11-28T07:37:38.856Z,716
2017-11-28T07:38:40.673Z,756
2017-11-28T07:39:42.487Z,792
2017-11-28T07:40:44.362Z,840
2017-11-28T07:41:46.237Z,880
2017-11-28T07:42:48.112Z,928
2017-11-28T07:44:02.261Z,944
2017-11-28T07:45:04.141Z,968
2017-11-28T07:46:06.019Z,1000
2017-11-28T07:47:07.893Z,1008
2017-11-28T07:48:09.712Z,1016
2017-11-28T07:49:11.566Z,1020
2017-11-28T07:50:13.425Z,1048
2017-11-28T07:51:15.303Z,1064
2017-11-28T07:52:17.176Z,1092
2017-11-28T07:53:31.326Z,1104
2017-11-28T07:54:33.203Z,1140
2017-11-28T07:55:35.082Z,1140
2017-11-28T07:56:36.958Z,1152
2017-11-28T07:57:38.777Z,1160
2017-11-28T07:58:40.596Z,1180
2017-11-28T07:59:42.474Z,1196
2017-11-28T08:00:44.348Z,1196
2017-11-28T08:01:46.225Z,1224
2017-11-28T08:03:00.406Z,1256
2017-11-28T08:04:02.269Z,1308
2017-11-28T08:05:04.153Z,1316
2017-11-28T08:06:06.024Z,1328
2017-11-28T08:07:07.841Z,1348
2017-11-28T08:08:09.657Z,1348
2017-11-28T08:09:11.493Z,1360
2017-11-28T08:10:13.313Z,1376
2017-11-28T08:11:15.167Z,1428
2017-11-28T08:12:29.365Z,1484
2017-11-28T08:13:31.244Z,1524
2017-11-28T08:14:33.123Z,1584
2017-11-28T08:15:34.997Z,1660
2017-11-28T08:16:36.818Z,1732
2017-11-28T08:17:38.634Z,1776
2017-11-28T08:18:40.513Z,1836
2017-11-28T08:19:42.384Z,1848
2017-11-28T08:20:44.265Z,1828
2017-11-28T08:21:58.411Z,1884
2017-11-28T08:23:00.288Z,1932
2017-11-28T08:24:02.167Z,1956
2017-11-28T08:25:04.042Z,1996
2017-11-28T08:26:05.858Z,2048
2017-11-28T08:27:07.677Z,2084
2017-11-28T08:28:09.562Z,2132
2017-11-28T08:29:11.434Z,2176
2017-11-28T08:30:13.307Z,2248
2017-11-28T08:31:27.465Z,2256
2017-11-28T08:32:29.343Z,2236
2017-11-28T08:33:31.222Z,2268
2017-11-28T08:34:33.097Z,2292
2017-11-28T08:35:34.923Z,2304
2017-11-28T08:36:36.736Z,2300
2017-11-28T08:37:38.613Z,2276
2017-11-28T08:38:40.488Z,2296
2017-11-28T08:39:42.366Z,2336
2017-11-28T08:40:56.515Z,2340
2017-11-28T08:41:58.392Z,2276
2017-11-28T08:43:00.270Z,2228
2017-11-28T08:44:02.148Z,2220
2017-11-28T08:45:03.966Z,2208
2017-11-28T08:46:05.783Z,2180
2017-11-28T08:47:07.660Z,2144
2017-11-28T08:48:09.544Z,2072
2017-11-28T08:49:11.421Z,1996
2017-11-28T08:50:25.571Z,1920
2017-11-28T08:51:27.448Z,1916
2017-11-28T08:52:29.334Z,1932
2017-11-28T08:53:31.208Z,1944
2017-11-28T08:54:33.025Z,1956
2017-11-28T08:55:34.843Z,2000
2017-11-28T08:56:36.720Z,2056
2017-11-28T08:57:38.595Z,2092
2017-11-28T08:58:40.477Z,2140
2017-11-28T08:59:54.629Z,2184
2017-11-28T09:00:56.500Z,2300
2017-11-28T09:01:58.386Z,2500
2017-11-28T09:03:00.259Z,2712
2017-11-28T09:04:02.097Z,2656
2017-11-28T09:05:03.908Z,2652
2017-11-28T09:06:05.784Z,2796
2017-11-28T09:07:07.660Z,2936
2017-11-28T09:08:09.538Z,2980
2017-11-28T09:09:23.691Z,3016
2017-11-28T09:10:25.569Z,3180
2017-11-28T09:11:27.450Z,3344
2017-11-28T09:12:29.326Z,3480
2017-11-28T09:13:31.146Z,3672
2017-11-28T09:14:32.964Z,3880
2017-11-28T09:15:34.841Z,4008
2017-11-28T09:16:36.719Z,3992
2017-11-28T09:17:38.596Z,3972
2017-11-28T09:18:52.730Z,4028
2017-11-28T09:19:54.546Z,4032
2017-11-28T09:20:56.370Z,3976
2017-11-28T09:21:58.211Z,3844
2017-11-28T09:23:00.092Z,3672
2017-11-28T09:24:01.976Z,3520
2017-11-28T09:25:03.802Z,3488
2017-11-28T09:26:05.618Z,3472
2017-11-28T09:27:07.434Z,3424
2017-11-28T09:28:21.849Z,3152
2017-11-28T09:29:23.840Z,3000
2017-11-28T09:30:25.718Z,3136
2017-11-28T09:31:27.594Z,3352
2017-11-28T09:32:29.415Z,3584
2017-11-28T09:33:31.235Z,3776
2017-11-28T09:34:33.233Z,3908
2017-11-28T09:35:35.248Z,3924
2017-11-28T09:36:37.126Z,3832
2017-11-28T09:37:51.261Z,4088
2017-11-28T09:38:53.245Z,4212
2017-11-28T09:39:55.249Z,4308
2017-11-28T09:40:57.305Z,4528
2017-11-28T09:41:59.307Z,4388
2017-11-28T09:43:01.271Z,4340
2017-11-28T09:44:03.308Z,4296
2017-11-28T09:45:05.336Z,4120
2017-11-28T09:46:07.259Z,4056
2017-11-28T09:47:21.602Z,3964
2017-11-28T09:48:23.481Z,3888
2017-11-28T09:49:25.358Z,3696
2017-11-28T09:50:27.238Z,3588
2017-11-28T09:51:29.054Z,3608
2017-11-28T09:52:30.875Z,3420
2017-11-28T09:53:32.751Z,3288
2017-11-28T09:54:34.630Z,3332
2017-11-28T09:55:36.510Z,3376
2017-11-28T09:56:50.673Z,3948
2017-11-28T09:57:52.549Z,4704
2017-11-28T09:58:54.433Z,5016
2017-11-28T09:59:56.298Z,5312
2017-11-28T10:00:58.120Z,4764
2017-11-28T10:01:59.940Z,4364
2017-11-28T10:03:01.816Z,4132
2017-11-28T10:04:03.694Z,3676
2017-11-28T10:05:05.573Z,3612
2017-11-28T10:06:19.708Z,3216
2017-11-28T10:07:21.546Z,3140
2017-11-28T10:08:23.442Z,2940
2017-11-28T10:09:25.321Z,2692
2017-11-28T10:10:27.178Z,2548
2017-11-28T10:11:28.998Z,2668
2017-11-28T10:12:30.816Z,2484
2017-11-28T10:13:32.698Z,2796
2017-11-28T10:14:34.572Z,3292
2017-11-28T10:15:48.810Z,4236
2017-11-28T10:16:50.688Z,4404
2017-11-28T10:17:52.566Z,5200
2017-11-28T10:18:54.446Z,6048
2017-11-28T10:19:56.269Z,5876
2017-11-28T10:20:58.087Z,5264
2017-11-28T10:21:59.965Z,5656
2017-11-28T10:23:01.843Z,5892
2017-11-28T10:24:03.720Z,5216
2017-11-28T10:25:17.871Z,4868
2017-11-28T10:26:19.751Z,4224
2017-11-28T10:27:21.633Z,3544
2017-11-28T10:28:23.507Z,3412
2017-11-28T10:29:25.328Z,3556
2017-11-28T10:30:27.155Z,3760
2017-11-28T10:31:29.029Z,4156
2017-11-28T10:32:30.903Z,4620
2017-11-28T10:33:32.782Z,5072
2017-11-28T10:34:46.935Z,5188
2017-11-28T10:35:48.811Z,5280
2017-11-28T10:36:50.696Z,5308
2017-11-28T10:37:52.573Z,5616
2017-11-28T10:38:54.397Z,6508
2017-11-28T10:39:56.218Z,6940
2017-11-28T10:40:58.098Z,7368
2017-11-28T10:41:59.973Z,7592
2017-11-28T10:43:01.850Z,7960
2017-11-28T10:44:16.002Z,7200
2017-11-28T10:45:17.885Z,6644
2017-11-28T10:46:19.765Z,6468
2017-11-28T10:47:21.640Z,6472
2017-11-28T10:48:23.464Z,6708
2017-11-28T10:49:25.286Z,6320
2017-11-28T10:50:27.165Z,5704
2017-11-28T10:51:29.040Z,5404
2017-11-28T10:52:30.918Z,5044
2017-11-28T10:53:45.069Z,4576
2017-11-28T10:54:46.948Z,4356
2017-11-28T10:55:48.828Z,4700
2017-11-28T10:56:50.705Z,5056
2017-11-28T10:57:52.535Z,5604
2017-11-28T10:58:54.355Z,5236
2017-11-28T10:59:56.231Z,4908
2017-11-28T11:00:58.109Z,4300
2017-11-28T11:01:59.991Z,4448
2017-11-28T11:03:14.143Z,4368
2017-11-28T11:04:16.022Z,4188
2017-11-28T11:05:17.906Z,4232
2017-11-28T11:06:19.785Z,4440
2017-11-28T11:07:21.611Z,4352
2017-11-28T11:08:23.424Z,4560
2017-11-28T11:09:25.300Z,5208
2017-11-28T11:10:27.179Z,4756
2017-11-28T11:11:29.058Z,4860
2017-11-28T11:12:43.210Z,5168
2017-11-28T11:13:45.088Z,5540
2017-11-28T11:14:46.970Z,5652
2017-11-28T11:15:48.849Z,5900
2017-11-28T11:16:50.682Z,5748
2017-11-28T11:17:52.502Z,5464
2017-11-28T11:18:54.403Z,5232
2017-11-28T11:19:56.265Z,4880
2017-11-28T11:20:58.144Z,4404
2017-11-28T11:22:12.296Z,4428
2017-11-28T11:23:14.175Z,4388
2017-11-28T11:24:16.056Z,3956
2017-11-28T11:25:17.935Z,3688
2017-11-28T11:26:19.764Z,3476
2017-11-28T11:27:21.587Z,3380
2017-11-28T11:28:23.466Z,3612
2017-11-28T11:29:25.348Z,4020
2017-11-28T11:30:27.223Z,3980
2017-11-28T11:31:41.380Z,4080
2017-11-28T11:32:43.256Z,3724
2017-11-28T11:33:45.143Z,3580
2017-11-28T11:34:47.013Z,4156
2017-11-28T11:35:48.909Z,4280
2017-11-28T11:36:50.727Z,4468
2017-11-28T11:37:52.609Z,4736
2017-11-28T11:38:54.948Z,4612
2017-11-28T11:39:56.922Z,4084
2017-11-28T11:41:11.090Z,3452
2017-11-28T11:42:12.996Z,3340
2017-11-28T11:43:14.879Z,3504
2017-11-28T11:44:16.759Z,3928
2017-11-28T11:45:18.664Z,3760
2017-11-28T11:46:20.540Z,3876
2017-11-28T11:47:22.392Z,4192
2017-11-28T11:48:24.265Z,4640
2017-11-28T11:49:26.145Z,4124
2017-11-28T11:50:40.367Z,3832
2017-11-28T11:51:42.407Z,3448
2017-11-28T11:52:44.261Z,3196
2017-11-28T11:53:46.139Z,2924
2017-11-28T11:54:47.960Z,2740
2017-11-28T11:55:49.777Z,2752
2017-11-28T11:56:51.654Z,2504
2017-11-28T11:57:53.534Z,2616
2017-11-28T11:58:55.786Z,2700
2017-11-28T12:00:10.352Z,2644
2017-11-28T12:01:12.195Z,2724
2017-11-28T12:02:14.079Z,2672
2017-11-28T12:03:15.959Z,2420
2017-11-28T12:04:17.862Z,2328
2017-11-28T12:05:19.759Z,2276
2017-11-28T12:06:21.652Z,2192
2017-11-28T12:07:23.525Z,2344
2017-11-28T12:08:25.408Z,2800
2017-11-28T12:09:39.558Z,3424
2017-11-28T12:10:41.437Z,3304
2017-11-28T12:11:43.315Z,3148
2017-11-28T12:12:45.192Z,3164
2017-11-28T12:13:47.012Z,2808
2017-11-28T12:14:48.834Z,2396
2017-11-28T12:15:50.710Z,2696
2017-11-28T12:16:52.588Z,3956
2017-11-28T12:17:54.748Z,4764
2017-11-28T12:19:08.923Z,4976
2017-11-28T12:20:10.828Z,5128
2017-11-28T12:21:12.709Z,4644
2017-11-28T12:22:14.608Z,4024
2017-11-28T12:23:16.422Z,3608
2017-11-28T12:24:18.246Z,3600
2017-11-28T12:25:20.121Z,3328
2017-11-28T12:26:22.137Z,2880
2017-11-28T12:27:24.126Z,2592
2017-11-28T12:28:38.279Z,2728
2017-11-28T12:29:40.156Z,3168
2017-11-28T12:30:42.182Z,3828
2017-11-28T12:31:44.133Z,4040
2017-11-28T12:32:45.942Z,3548
2017-11-28T12:33:47.759Z,2956
2017-11-28T12:34:49.635Z,2396
2017-11-28T12:35:51.515Z,1996
2017-11-28T12:36:53.390Z,2020
2017-11-28T12:38:07.542Z,2056
2017-11-28T12:39:09.417Z,1884
2017-11-28T12:40:11.302Z,1788
2017-11-28T12:41:13.292Z,2040
2017-11-28T12:42:15.109Z,2424
2017-11-28T12:43:16.929Z,2652
2017-11-28T12:44:18.807Z,2532
2017-11-28T12:45:20.686Z,2504
2017-11-28T12:46:22.570Z,2712
2017-11-28T12:47:36.727Z,2724
2017-11-28T12:48:38.596Z,2588
2017-11-28T12:49:40.478Z,2104
2017-11-28T12:50:42.352Z,1940
2017-11-28T12:51:44.176Z,2204
2017-11-28T12:52:46.179Z,2344
2017-11-28T12:53:48.025Z,2436
2017-11-28T12:54:49.906Z,2524
2017-11-28T12:55:51.841Z,2272
2017-11-28T12:57:06.086Z,2232
2017-11-28T12:58:07.971Z,2496
2017-11-28T12:59:09.845Z,2748
2017-11-28T13:00:11.725Z,2772
2017-11-28T13:01:13.544Z,2836
2017-11-28T13:02:15.365Z,2616
2017-11-28T13:03:17.241Z,2428
2017-11-28T13:04:19.120Z,2380
2017-11-28T13:05:20.997Z,2316
2017-11-28T13:06:35.254Z,2164
2017-11-28T13:07:37.232Z,2212
2017-11-28T13:08:39.130Z,2160
2017-11-28T13:09:40.997Z,2232
2017-11-28T13:10:42.814Z,2312
2017-11-28T13:11:44.735Z,2476
2017-11-28T13:12:46.608Z,2828
2017-11-28T13:13:48.565Z,3052
2017-11-28T13:14:50.444Z,2892
2017-11-28T13:16:04.599Z,2564
2017-11-28T13:17:06.551Z,2512
2017-11-28T13:18:08.421Z,2660
2017-11-28T13:19:10.322Z,2564
2017-11-28T13:20:12.140Z,2400
2017-11-28T13:21:13.973Z,2344
2017-11-28T13:22:15.852Z,2528
2017-11-28T13:23:17.732Z,2700
2017-11-28T13:24:19.621Z,2724
2017-11-28T13:25:33.761Z,2792
2017-11-28T13:26:35.636Z,2784
2017-11-28T13:27:37.519Z,2380
2017-11-28T13:28:39.397Z,1936
2017-11-28T13:29:41.215Z,1768
2017-11-28T13:30:43.106Z,1768
2017-11-28T13:31:44.977Z,1768
2017-11-28T13:32:46.863Z,1712
2017-11-28T13:33:48.738Z,1632
2017-11-28T13:35:02.988Z,1648
2017-11-28T13:36:04.914Z,1688
2017-11-28T13:37:06.793Z,1720
2017-11-28T13:38:08.668Z,1668
2017-11-28T13:39:10.488Z,1684
2017-11-28T13:40:12.362Z,1564
2017-11-28T13:41:14.298Z,1740
2017-11-28T13:42:16.267Z,1752
2017-11-28T13:43:18.145Z,1696
2017-11-28T13:44:32.295Z,1660
2017-11-28T13:45:34.301Z,1692
2017-11-28T13:46:36.192Z,1704
2017-11-28T13:47:38.051Z,1736
2017-11-28T13:48:39.869Z,1976
2017-11-28T13:49:41.687Z,2180
2017-11-28T13:50:43.565Z,2384
2017-11-28T13:51:45.792Z,2444
2017-11-28T13:52:47.891Z,2524
2017-11-28T13:54:02.143Z,2900
2017-11-28T13:55:04.091Z,2716
2017-11-28T13:56:06.007Z,2628
2017-11-28T13:57:07.884Z,2460
2017-11-28T13:58:09.703Z,1992
2017-11-28T13:59:11.529Z,1696
2017-11-28T14:00:13.397Z,1524
2017-11-28T14:01:15.273Z,1428
2017-11-28T14:02:17.149Z,1208
2017-11-28T14:03:31.320Z,1048
2017-11-28T14:04:33.202Z,1028
2017-11-28T14:05:35.082Z,1032
2017-11-28T14:06:36.956Z,984
2017-11-28T14:07:38.774Z,932
2017-11-28T14:08:41.046Z,872
2017-11-28T14:09:42.911Z,800
2017-11-28T14:10:44.806Z,808
2017-11-28T14:11:46.646Z,856
2017-11-28T14:13:00.847Z,856
2017-11-28T14:14:02.724Z,800
2017-11-28T14:15:04.603Z,792
2017-11-28T14:16:06.479Z,808
2017-11-28T14:17:08.300Z,892
2017-11-28T14:18:10.115Z,900
2017-11-28T14:19:11.995Z,832
2017-11-28T14:20:13.873Z,884
2017-11-28T14:21:15.751Z,952
2017-11-28T14:22:29.904Z,972
2017-11-28T14:23:31.788Z,880
2017-11-28T14:24:33.667Z,760
2017-11-28T14:25:35.542Z,708
2017-11-28T14:26:37.361Z,692
2017-11-28T14:27:39.194Z,636
2017-11-28T14:28:41.068Z,628
2017-11-28T14:29:42.950Z,612
2017-11-28T14:30:44.831Z,572
2017-11-28T14:31:59.034Z,504
2017-11-28T14:33:00.915Z,500
2017-11-28T14:34:02.796Z,492
2017-11-28T14:35:04.669Z,580
2017-11-28T14:36:06.489Z,632
2017-11-28T14:37:08.305Z,636
2017-11-28T14:38:10.186Z,568
2017-11-28T14:39:12.067Z,468
2017-11-28T14:40:13.946Z,452
2017-11-28T14:41:28.099Z,440
2017-11-28T14:42:29.974Z,440
2017-11-28T14:43:31.861Z,432
2017-11-28T14:44:33.731Z,408